createdAt,value
2023-01-20T04:01:02.035Z,-1.90
2023-01-20T04:03:45.731Z,-2.00
2023-01-20T04:06:14.767Z,-1.90
2023-01-20T04:08:55.125Z,-1.90
2023-01-20T04:11:23.890Z,-1.90
2023-01-20T04:13:51.377Z,-1.90
2023-01-20T04:16:20.119Z,-2.00
2023-01-20T04:18:50.393Z,-1.80
2023-01-20T04:21:40.822Z,-2.00
2023-01-20T04:24:29.842Z,-2.20
2023-01-20T04:26:57.052Z,-2.20
2023-01-20T04:29:24.182Z,-2.10
2023-01-20T04:31:57.615Z,-2.00
2023-01-20T04:34:24.843Z,-1.70
2023-01-20T04:36:52.008Z,-1.60
2023-01-20T04:39:19.209Z,-1.50
2023-01-20T04:41:47.477Z,-1.60
2023-01-20T04:44:14.710Z,-1.60
2023-01-20T04:46:41.957Z,-1.70
2023-01-20T04:49:11.047Z,-1.60
2023-01-20T04:51:38.283Z,-1.50
2023-01-20T04:54:05.574Z,-1.70
2023-01-20T04:56:32.907Z,-1.90
2023-01-20T04:59:00.103Z,-1.80
2023-01-20T05:01:27.355Z,-1.60
2023-01-20T05:03:54.643Z,-1.80
2023-01-20T05:06:21.776Z,-1.80
2023-01-20T05:08:48.931Z,-1.90
2023-01-20T05:11:16.084Z,-1.80
2023-01-20T05:13:43.209Z,-1.80
2023-01-20T05:16:10.752Z,-1.80
2023-01-20T05:18:38.029Z,-1.90
2023-01-20T05:21:07.900Z,-2.30
2023-01-20T05:23:35.314Z,-2.10
2023-01-20T05:26:05.584Z,-2.10
2023-01-20T05:28:32.803Z,-2.10
2023-01-20T05:31:00.076Z,-2.10
2023-01-20T05:33:27.340Z,-2.00
2023-01-20T05:35:56.011Z,-1.90
2023-01-20T05:38:23.319Z,-1.90
2023-01-20T05:40:50.500Z,-1.80
2023-01-20T05:43:17.668Z,-1.60
2023-01-20T05:45:46.680Z,-1.50
2023-01-20T05:48:13.954Z,-1.60
2023-01-20T05:50:41.170Z,-1.50
2023-01-20T05:53:08.569Z,-1.60
2023-01-20T05:55:35.788Z,-1.60
2023-01-20T05:58:03.841Z,-1.80
2023-01-20T06:00:31.097Z,-1.60
2023-01-20T06:02:59.160Z,-1.60
2023-01-20T06:05:26.588Z,-1.50
2023-01-20T06:07:57.560Z,-1.40
2023-01-20T06:10:28.003Z,-1.40
2023-01-20T06:12:56.148Z,-0.90
2023-01-20T06:15:24.097Z,-1.20
2023-01-20T06:17:52.306Z,-1.20
2023-01-20T06:20:19.513Z,-1.50
2023-01-20T06:22:46.776Z,-1.50
2023-01-20T06:25:14.584Z,-1.40
2023-01-20T06:27:41.975Z,-1.40
2023-01-20T06:30:09.991Z,-1.40
2023-01-20T06:32:37.161Z,-1.40
2023-01-20T06:35:04.551Z,-1.40
2023-01-20T06:37:31.730Z,-1.50
2023-01-20T06:39:58.944Z,-1.50
2023-01-20T06:42:26.145Z,-1.70
2023-01-20T06:44:53.359Z,-1.70
2023-01-20T06:47:20.550Z,-1.70
2023-01-20T06:49:47.745Z,-1.60
2023-01-20T06:52:14.939Z,-1.50
2023-01-20T06:54:42.095Z,-1.40
2023-01-20T06:57:09.329Z,-1.40
2023-01-20T06:59:36.611Z,-1.40
2023-01-20T07:02:04.066Z,-1.50
2023-01-20T07:04:31.312Z,-1.40
2023-01-20T07:06:58.452Z,-1.30
2023-01-20T07:09:25.614Z,-1.20
2023-01-20T07:11:52.805Z,-1.30
2023-01-20T07:14:19.993Z,-1.50
2023-01-20T07:16:47.458Z,-1.70
2023-01-20T07:19:14.711Z,-1.60
2023-01-20T07:21:41.861Z,-1.50
2023-01-20T07:24:09.716Z,-1.30
2023-01-20T07:26:39.896Z,-1.20
2023-01-20T07:29:07.130Z,-1.10
2023-01-20T07:31:34.432Z,-1.10
2023-01-20T07:34:01.916Z,-1.00
2023-01-20T07:36:29.186Z,-0.90
2023-01-20T07:38:56.463Z,-0.80
2023-01-20T07:41:23.846Z,-0.80
2023-01-20T07:43:52.383Z,-1.00
2023-01-20T07:46:20.623Z,-1.20
2023-01-20T07:48:47.905Z,-1.30
2023-01-20T07:51:15.996Z,-1.10
2023-01-20T07:53:46.985Z,-0.90
2023-01-20T07:56:16.682Z,-0.70
2023-01-20T07:58:45.295Z,-0.80
2023-01-20T08:01:18.865Z,-0.70
2023-01-20T08:03:46.694Z,-0.80
2023-01-20T08:06:15.878Z,-1.10
2023-01-20T08:08:43.196Z,-1.10
2023-01-20T08:11:13.644Z,-0.90
2023-01-20T08:13:41.719Z,-0.90
2023-01-20T08:16:11.360Z,-0.70
2023-01-20T08:18:39.074Z,-0.50
2023-01-20T08:21:08.242Z,-0.60
2023-01-20T08:23:37.183Z,-0.60
2023-01-20T08:26:06.768Z,-0.40
2023-01-20T08:28:35.957Z,-0.40
2023-01-20T08:31:08.756Z,-0.50
2023-01-20T08:33:36.138Z,-0.50
2023-01-20T08:36:15.729Z,-0.20
2023-01-20T08:38:44.130Z,0.00
2023-01-20T08:41:13.997Z,0.10
2023-01-20T08:43:41.173Z,0.20
2023-01-20T08:46:11.298Z,0.30
2023-01-20T08:48:40.203Z,0.40
2023-01-20T08:51:10.177Z,0.40
2023-01-20T08:53:37.551Z,0.40
2023-01-20T08:56:04.936Z,0.40
2023-01-20T08:58:32.205Z,0.30
2023-01-20T09:00:59.790Z,0.40
2023-01-20T09:03:27.042Z,0.40
2023-01-20T09:05:54.332Z,0.40
2023-01-20T09:08:21.633Z,0.70
2023-01-20T09:10:48.754Z,0.80
2023-01-20T09:13:15.987Z,1.00
2023-01-20T09:15:43.127Z,0.70
2023-01-20T09:18:11.751Z,0.70
2023-01-20T09:20:38.927Z,0.80
2023-01-20T09:23:06.076Z,0.70
2023-01-20T09:25:33.235Z,0.90
2023-01-20T09:28:01.505Z,0.80
2023-01-20T09:30:29.034Z,1.20
2023-01-20T09:32:57.979Z,1.20
2023-01-20T09:35:25.700Z,1.20
2023-01-20T09:38:12.111Z,1.30
2023-01-20T09:41:23.053Z,0.70
2023-01-20T09:44:19.260Z,0.70
2023-01-20T09:47:20.142Z,1.00
2023-01-20T09:50:30.562Z,0.80
2023-01-20T09:53:15.332Z,0.70
2023-01-20T09:55:55.721Z,0.70
2023-01-20T09:58:45.229Z,0.60
2023-01-20T10:01:31.170Z,0.20
2023-01-20T10:04:26.777Z,0.10
2023-01-20T10:07:27.854Z,0.10
2023-01-20T10:10:10.641Z,0.00
2023-01-20T10:12:40.319Z,-0.20
2023-01-20T10:15:09.369Z,-0.10
2023-01-20T10:18:12.048Z,0.10
2023-01-20T10:20:56.820Z,0.40
2023-01-20T10:23:55.011Z,0.30
2023-01-20T10:26:30.457Z,0.40
2023-01-20T10:29:07.318Z,0.70
2023-01-20T10:31:40.779Z,0.50
2023-01-20T10:34:18.723Z,0.40
2023-01-20T10:36:56.160Z,0.70
2023-01-20T10:39:39.556Z,1.00
2023-01-20T10:42:13.251Z,1.00
2023-01-20T10:44:41.096Z,1.10
2023-01-20T10:47:13.905Z,1.20
2023-01-20T10:50:08.583Z,1.30
2023-01-20T10:53:06.525Z,1.50
2023-01-20T10:55:39.314Z,1.40
2023-01-20T10:58:15.797Z,1.50
2023-01-20T11:00:44.084Z,1.40
2023-01-20T11:03:17.797Z,1.20
2023-01-20T11:05:46.685Z,1.10
2023-01-20T11:08:26.800Z,1.00
2023-01-20T11:10:58.081Z,1.10
2023-01-20T11:13:25.668Z,1.20
2023-01-20T11:16:00.899Z,1.40
2023-01-20T11:18:30.599Z,1.50
2023-01-20T11:21:07.255Z,1.60
2023-01-20T11:23:52.243Z,1.60
2023-01-20T11:26:34.626Z,1.50
2023-01-20T11:29:23.733Z,1.50
2023-01-20T11:31:54.234Z,1.70
2023-01-20T11:34:30.982Z,1.50
2023-01-20T11:37:15.590Z,1.70
2023-01-20T11:39:50.036Z,1.40
2023-01-20T11:42:26.190Z,1.00
2023-01-20T11:45:01.113Z,1.00
2023-01-20T11:47:36.885Z,1.40
2023-01-20T11:50:04.052Z,1.60
2023-01-20T11:52:47.052Z,1.50
2023-01-20T11:55:18.273Z,1.60
2023-01-20T11:58:02.383Z,1.60
2023-01-20T12:00:40.764Z,1.40
2023-01-20T12:03:10.647Z,1.40
2023-01-20T12:05:54.923Z,1.50
2023-01-20T12:08:30.009Z,1.40
2023-01-20T12:11:03.055Z,1.70
2023-01-20T12:13:55.965Z,1.70
2023-01-20T12:16:25.457Z,1.70
2023-01-20T12:19:04.717Z,1.50
2023-01-20T12:21:41.063Z,1.40
2023-01-20T12:24:49.170Z,1.00
2023-01-20T12:27:23.924Z,1.10
2023-01-20T12:29:53.810Z,1.10
2023-01-20T12:32:21.024Z,1.20
2023-01-20T12:34:48.194Z,1.30
2023-01-20T12:37:38.202Z,1.40
2023-01-20T12:40:19.120Z,1.50
2023-01-20T12:42:54.683Z,1.50
2023-01-20T12:45:31.320Z,1.50
2023-01-20T12:48:27.762Z,1.10
2023-01-20T12:51:25.425Z,1.10
2023-01-20T12:53:58.116Z,1.40
2023-01-20T12:56:47.693Z,1.50
2023-01-20T12:59:17.655Z,1.30
2023-01-20T13:02:26.562Z,1.40
2023-01-20T13:04:59.410Z,1.60
2023-01-20T13:07:35.054Z,1.50
2023-01-20T13:10:24.135Z,1.10
2023-01-20T13:13:21.992Z,1.20
2023-01-20T13:16:08.954Z,1.20
2023-01-20T13:18:39.722Z,1.10
2023-01-20T13:21:12.359Z,1.20
2023-01-20T13:23:39.608Z,1.60
2023-01-20T13:26:07.430Z,1.70
2023-01-20T13:28:35.109Z,2.00
2023-01-20T13:31:33.259Z,1.30
2023-01-20T13:34:41.497Z,1.50
2023-01-20T13:37:26.583Z,1.40
2023-01-20T13:39:54.919Z,1.30
2023-01-20T13:42:37.044Z,1.00
2023-01-20T13:45:14.159Z,1.20
2023-01-20T13:47:58.185Z,1.50
2023-01-20T13:50:40.801Z,1.50
2023-01-20T13:53:11.004Z,1.60
2023-01-20T13:55:40.923Z,1.30
2023-01-20T13:58:41.016Z,0.90
2023-01-20T14:01:14.896Z,1.10
2023-01-20T14:03:42.196Z,1.30
2023-01-20T14:06:12.334Z,1.40
2023-01-20T14:09:02.725Z,1.40
2023-01-20T14:11:31.238Z,1.60
2023-01-20T14:14:07.034Z,1.60
2023-01-20T14:16:34.222Z,1.50
2023-01-20T14:19:15.871Z,1.30
2023-01-20T14:21:43.112Z,1.30
2023-01-20T14:24:27.227Z,1.20
2023-01-20T14:27:20.603Z,1.30
2023-01-20T14:29:53.191Z,1.00
2023-01-20T14:32:33.722Z,0.80
2023-01-20T14:35:02.405Z,0.60
2023-01-20T14:37:34.411Z,0.40
2023-01-20T14:40:26.005Z,0.50
2023-01-20T14:42:59.112Z,0.70
2023-01-20T14:45:29.323Z,0.50
2023-01-20T14:48:01.335Z,0.40
2023-01-20T14:50:29.263Z,0.50
2023-01-20T14:52:56.522Z,0.60
2023-01-20T14:55:40.665Z,0.30
2023-01-20T14:58:18.487Z,0.20
2023-01-20T15:00:48.214Z,0.00
2023-01-20T15:03:25.288Z,-0.20
2023-01-20T15:05:59.395Z,-0.20
2023-01-20T15:08:32.342Z,0.00
2023-01-20T15:11:16.380Z,0.00
2023-01-20T15:14:10.045Z,0.10
2023-01-20T15:16:38.603Z,0.10
2023-01-20T15:19:20.513Z,0.20
2023-01-20T15:21:50.173Z,0.30
2023-01-20T15:24:17.280Z,0.10
2023-01-20T15:26:45.782Z,0.10
2023-01-20T15:29:30.538Z,0.20
2023-01-20T15:32:17.949Z,0.30
2023-01-20T15:34:47.439Z,0.50
2023-01-20T15:37:20.521Z,0.50
2023-01-20T15:39:47.739Z,0.60
2023-01-20T15:42:15.901Z,0.50
2023-01-20T15:44:43.126Z,0.50
2023-01-20T15:47:30.817Z,0.20
2023-01-20T15:49:58.470Z,0.00
2023-01-20T15:52:25.719Z,-0.10
2023-01-20T15:54:52.880Z,-0.20
2023-01-20T15:57:20.070Z,-0.20
2023-01-20T15:59:49.646Z,-0.30
2023-01-20T16:02:23.782Z,-0.40
2023-01-20T16:04:51.029Z,-0.40
2023-01-20T16:07:20.408Z,-0.50
2023-01-20T16:09:47.852Z,-0.20
2023-01-20T16:12:17.067Z,-0.20
2023-01-20T16:14:45.193Z,-0.10
2023-01-20T16:17:17.674Z,-0.10
2023-01-20T16:19:44.902Z,-0.20
2023-01-20T16:22:13.526Z,-0.40
2023-01-20T16:24:41.903Z,-0.30
2023-01-20T16:27:19.247Z,-0.30
2023-01-20T16:29:46.493Z,-0.30
2023-01-20T16:32:16.886Z,-0.40
2023-01-20T16:34:45.526Z,-0.60
2023-01-20T16:37:15.590Z,-0.50
2023-01-20T16:39:42.789Z,-0.40
2023-01-20T16:42:14.205Z,-0.30
2023-01-20T16:44:41.367Z,-0.20
2023-01-20T16:47:08.579Z,-0.10
2023-01-20T16:49:35.872Z,-0.10
2023-01-20T16:52:03.227Z,-0.10
2023-01-20T16:54:30.516Z,-0.10
2023-01-20T16:56:57.675Z,-0.10
2023-01-20T16:59:25.927Z,-0.10
2023-01-20T17:01:53.188Z,-0.10
2023-01-20T17:04:20.430Z,-0.10
2023-01-20T17:06:47.613Z,-0.20
2023-01-20T17:09:14.879Z,-0.30
2023-01-20T17:11:42.068Z,-0.30
2023-01-20T17:14:11.239Z,-0.30
2023-01-20T17:16:39.028Z,-0.40
2023-01-20T17:19:06.812Z,-0.20
2023-01-20T17:21:38.680Z,-0.30
2023-01-20T17:24:06.984Z,-0.30
2023-01-20T17:26:34.725Z,-0.30
2023-01-20T17:29:04.031Z,-0.40
2023-01-20T17:31:34.408Z,-0.40
2023-01-20T17:34:02.109Z,-0.50
2023-01-20T17:36:31.486Z,-0.40
2023-01-20T17:38:58.707Z,-0.30
2023-01-20T17:41:27.092Z,-0.30
2023-01-20T17:43:55.238Z,-0.50
2023-01-20T17:46:30.621Z,-0.60
2023-01-20T17:48:59.637Z,-0.40
2023-01-20T17:51:28.817Z,-0.50
2023-01-20T17:53:57.851Z,-0.40
2023-01-20T17:56:25.743Z,-0.50
2023-01-20T17:58:53.958Z,-0.30
2023-01-20T18:01:26.387Z,-0.30
2023-01-20T18:03:56.074Z,-0.30
2023-01-20T18:06:24.823Z,-0.30
2023-01-20T18:08:53.941Z,-0.30
2023-01-20T18:11:23.016Z,-0.30
2023-01-20T18:13:52.418Z,-0.30
2023-01-20T18:16:22.423Z,-0.30
2023-01-20T18:18:50.603Z,-0.40
2023-01-20T18:21:23.333Z,-0.30
2023-01-20T18:23:51.434Z,-0.20
2023-01-20T18:26:22.137Z,-0.20
2023-01-20T18:28:49.886Z,-0.10
2023-01-20T18:31:19.519Z,-0.10
2023-01-20T18:33:55.352Z,-0.20
2023-01-20T18:36:25.885Z,-0.20
2023-01-20T18:38:55.402Z,-0.20
2023-01-20T18:41:23.954Z,-0.30
2023-01-20T18:43:51.509Z,-0.50
2023-01-20T18:46:19.825Z,-0.40
2023-01-20T18:48:48.974Z,-0.40
2023-01-20T18:51:20.379Z,-0.30
2023-01-20T18:53:58.788Z,-0.30
2023-01-20T18:56:26.537Z,-0.30
2023-01-20T18:58:54.710Z,-0.30
2023-01-20T19:01:24.486Z,-0.30
2023-01-20T19:03:52.340Z,-0.30
2023-01-20T19:06:25.305Z,-0.40
2023-01-20T19:08:53.330Z,-0.60
2023-01-20T19:11:23.297Z,-0.50
2023-01-20T19:13:53.374Z,-0.50
2023-01-20T19:16:23.881Z,-0.60
2023-01-20T19:18:53.394Z,-0.70
2023-01-20T19:21:21.211Z,-0.80
2023-01-20T19:23:50.082Z,-0.60
2023-01-20T19:26:20.758Z,-0.70
2023-01-20T19:29:02.111Z,-0.80
2023-01-20T19:31:31.399Z,-0.80
2023-01-20T19:33:58.856Z,-1.00
2023-01-20T19:36:26.548Z,-1.00
2023-01-20T19:38:53.817Z,-0.80
2023-01-20T19:41:25.775Z,-0.70
2023-01-20T19:43:57.425Z,-0.70
2023-01-20T19:46:35.675Z,-0.60
2023-01-20T19:49:03.098Z,-0.40
2023-01-20T19:51:31.425Z,-0.40
2023-01-20T19:54:00.526Z,-0.40
2023-01-20T19:56:30.417Z,-0.40
2023-01-20T19:59:00.666Z,-0.30
2023-01-20T20:01:31.542Z,-0.40
2023-01-20T20:04:03.545Z,-0.40
2023-01-20T20:06:48.468Z,-0.50
2023-01-20T20:09:18.803Z,-0.60
2023-01-20T20:11:47.034Z,-0.60
2023-01-20T20:14:16.901Z,-0.60
2023-01-20T20:16:44.385Z,-0.60
2023-01-20T20:19:14.742Z,-0.40
2023-01-20T20:21:42.381Z,-0.50
2023-01-20T20:24:12.447Z,-0.40
2023-01-20T20:26:39.758Z,-0.40
2023-01-20T20:29:08.649Z,-0.20
2023-01-20T20:31:37.651Z,-0.20
2023-01-20T20:34:07.145Z,-0.20
2023-01-20T20:36:35.267Z,-0.40
2023-01-20T20:39:03.995Z,-0.60
2023-01-20T20:41:33.227Z,-0.60
2023-01-20T20:44:01.273Z,-0.60
2023-01-20T20:46:29.408Z,-0.80
2023-01-20T20:48:59.313Z,-0.80
2023-01-20T20:51:27.833Z,-0.70
2023-01-20T20:53:56.538Z,-0.60
2023-01-20T20:56:24.878Z,-0.50
2023-01-20T20:59:01.276Z,-0.30
2023-01-20T21:01:30.981Z,-0.30
2023-01-20T21:04:00.333Z,-0.20
2023-01-20T21:06:28.847Z,-0.30
2023-01-20T21:08:56.424Z,-0.40
2023-01-20T21:11:24.886Z,-0.50
2023-01-20T21:13:53.029Z,-0.60
2023-01-20T21:16:23.028Z,-0.50
2023-01-20T21:18:52.125Z,-0.50
2023-01-20T21:21:19.890Z,-0.50
2023-01-20T21:23:54.733Z,-0.70
2023-01-20T21:26:23.567Z,-0.70
2023-01-20T21:28:50.969Z,-0.80
2023-01-20T21:31:21.890Z,-0.80
2023-01-20T21:33:53.831Z,-0.90
2023-01-20T21:36:21.719Z,-0.80
2023-01-20T21:38:48.997Z,-0.70
2023-01-20T21:41:16.550Z,-0.70
2023-01-20T21:44:04.405Z,-0.60
2023-01-20T21:46:37.199Z,-0.70
2023-01-20T21:49:24.198Z,-0.80
2023-01-20T21:52:10.091Z,-0.80
2023-01-20T21:54:39.729Z,-0.90
2023-01-20T21:57:07.467Z,-0.80
2023-01-20T21:59:34.629Z,-0.70
